Lewiston, ID

4:55 PM PST on February 01, 2015 (GMT -0800)
Lewiston-Nez Perce County | Change Station
CLOSE
Current Station
Airport
Location: Lewiston,
Elevation: 1437 ft
Nearby Weather Stations

Elev 1437 ft 46.37 °N, 117.02 °W | Updated 4 minutes ago

Snow
Snow
33 °F
Feels Like 30 °F
N
4
Wind Variable Wind from NE

Today
High -- | Low -- °F
--% Chance of Precip.
Yesterday
High -- | Low -- °F
Precip. -- in
7:11 AM 4:52 PM
Waxing Gibbous, 97% visible
Pressure 30.11 in
Visibility 2.0 miles
Clouds Few 1000 ft
Mostly Cloudy 2100 ft
Overcast 3800 ft
Windchill 30 °F
Dew Point 32 °F
Humidity 96%
Rainfall 0.17 in
Snow Depth Not available.
UV 0 out of 12
Pollen 2.10 out of 12
Air Quality Not available.
Flu Activity Not available.
METAR KLWS 020051Z 05003KT 2SM -RA BR FEW010 BKN021 OVC038 01/00 A3007 RMK AO2 RAB43SNE43 SLP196 P0004 T00060000

More Conditions Fewer Conditions

Pressure 30.11 in
Visibility 2.0 miles
Clouds Few 1000 ft
Mostly Cloudy 2100 ft
Overcast 3800 ft
Windchill 30 °F
Dew Point 32 °F
Humidity 96%
Rainfall 0.17 in
Snow Depth Not available.
UV 0 out of 12
Pollen 2.10 out of 12
Air Quality Not available.
Flu Activity Not available.
METAR KLWS 020051Z 05003KT 2SM -RA BR FEW010 BKN021 OVC038 01/00 A3007 RMK AO2 RAB43SNE43 SLP196 P0004 T00060000

More Conditions Fewer Conditions

Nowcast | as of 4:17 PM PST on February 1, 2015

A band of moderate snow tracking across the Spokane area...Palouse ...L-c valley will begin to push into the Idaho Panhandle late this afternoon. Expect a burst of some heavier snow under this band with a slushy snow accumulations expected to build up on area roadways. This will result in some difficult travel conditions due to slick roadways...including along Interstate 90...Highway 195 and Highway 95.

×

10-Day Weather Forecast

Almanac

Astronomy

Feb. 01, 2015 Rise Set
Actual Time
Civil Twilight
Nautical Twilight
Astronomical Twilight
Moon
Length of Visible Light
Length of Day
Tomorrow will be .
, % of the Moon is Illuminated

Today's Extremes

State Highs State Lows

Community

WunderPhotos

Upload Photos

1,792,637 photos uploaded!

WunderBlogs® & News

Nearby

Air Quality

  Air Quality AQ Index Pollutant
Not available.

Snow Depth

Station Depth Elevation

Earthquake Activity

City Distance Mag. Time & Date
Minimum magnitude displayed is 2.5.

Coastal Water Temperatures

Place Temperature

Nearby Weather Stations